Time;durP1;ratioP1;P1;durP2;ratioP2;P2;SDS_P1;SDS_P2;PMS_P1;PMS_P2;Temp;Humidity;BMP_temperature;BMP_pressure;BME280_temperature;BME280_humidity;BME280_pressure;Samples;Min_cycle;Max_cycle;Signal;HPM_P1;HPM_P2
2021/12/03 00:00:52;;;;;;;2.60;1.67;;;2.30;99.90;;;;;;5087231;28;20180;-65
2021/12/03 00:03:18;;;;;;;1.55;1.50;;;2.30;99.90;;;;;;5086198;28;20235;-63
2021/12/03 00:05:45;;;;;;;1.23;1.20;;;2.20;99.90;;;;;;5067191;28;20291;-65
2021/12/03 00:08:12;;;;;;;1.13;1.13;;;2.00;99.90;;;;;;5066769;28;20204;-62
2021/12/03 00:10:38;;;;;;;1.80;1.70;;;2.00;99.90;;;;;;5067073;28;20381;-62
2021/12/03 00:13:07;;;;;;;1.60;1.50;;;1.90;99.90;;;;;;5066952;28;20181;-63
2021/12/03 00:15:33;;;;;;;8.02;2.58;;;1.80;99.90;;;;;;5067073;28;20170;-63
2021/12/03 00:17:58;;;;;;;1.10;1.10;;;1.80;99.90;;;;;;5066778;28;20232;-63
2021/12/03 00:20:25;;;;;;;1.83;1.63;;;1.70;99.90;;;;;;5085821;28;20297;-64
2021/12/03 00:22:54;;;;;;;2.10;1.85;;;1.60;99.90;;;;;;5069378;28;20304;-62
2021/12/03 00:25:20;;;;;;;3.45;1.50;;;1.60;99.90;;;;;;5087038;28;20443;-62
2021/12/03 00:27:45;;;;;;;1.00;1.00;;;1.60;99.90;;;;;;5086593;28;20169;-62
2021/12/03 00:30:13;;;;;;;1.30;1.20;;;1.60;99.90;;;;;;5069310;28;20176;-63
2021/12/03 00:32:40;;;;;;;3.42;1.55;;;1.50;99.90;;;;;;5086925;28;20414;-64
2021/12/03 00:35:07;;;;;;;1.38;1.27;;;1.50;99.90;;;;;;5086611;28;20177;-63
2021/12/03 00:37:33;;;;;;;2.30;2.10;;;1.40;99.90;;;;;;5086482;28;20179;-63
2021/12/03 00:39:59;;;;;;;2.17;1.63;;;1.50;99.90;;;;;;5069408;28;20224;-62
2021/12/03 00:42:27;;;;;;;2.72;2.55;;;1.40;99.90;;;;;;5086874;28;20187;-62
2021/12/03 00:44:55;;;;;;;1.75;1.40;;;1.30;99.90;;;;;;5057974;28;20193;-62
2021/12/03 00:47:22;;;;;;;3.72;2.00;;;1.40;99.90;;;;;;5066230;28;20169;-64
2021/12/03 00:49:48;;;;;;;1.23;1.13;;;1.40;99.90;;;;;;5067332;28;20161;-68
2021/12/03 00:52:15;;;;;;;2.47;1.92;;;1.30;99.90;;;;;;5070663;28;20161;-63
2021/12/03 00:54:40;;;;;;;4.63;2.20;;;1.30;99.90;;;;;;5070638;28;20203;-66
2021/12/03 00:57:06;;;;;;;2.27;2.07;;;1.30;99.90;;;;;;5070365;28;20366;-62
2021/12/03 00:59:32;;;;;;;4.70;2.10;;;1.30;99.90;;;;;;5070573;28;20416;-62
2021/12/03 01:01:57;;;;;;;2.23;2.13;;;1.40;99.90;;;;;;5070483;28;20305;-63
2021/12/03 01:04:23;;;;;;;1.27;1.23;;;1.40;99.90;;;;;;5070315;28;20208;-63
2021/12/03 01:06:49;;;;;;;1.00;1.00;;;1.50;99.90;;;;;;5070065;28;20201;-62
2021/12/03 01:09:15;;;;;;;3.40;2.13;;;1.50;99.90;;;;;;5070399;28;20416;-62
2021/12/03 01:11:41;;;;;;;1.75;1.65;;;1.50;99.90;;;;;;5070371;28;20308;-64
2021/12/03 01:14:07;;;;;;;2.77;2.53;;;1.60;99.90;;;;;;5060858;28;20196;-63
2021/12/03 01:16:33;;;;;;;1.80;1.70;;;1.60;99.90;;;;;;5090012;28;20161;-64
2021/12/03 01:19:00;;;;;;;2.80;2.60;;;1.70;99.90;;;;;;5086559;28;20169;-62
2021/12/03 01:21:26;;;;;;;0.90;0.90;;;1.70;99.90;;;;;;5070227;28;20184;-64
2021/12/03 01:23:53;;;;;;;2.35;2.25;;;1.70;99.90;;;;;;5069983;28;20185;-63
2021/12/03 01:26:20;;;;;;;2.80;2.30;;;1.70;99.90;;;;;;5069573;28;20249;-62
2021/12/03 01:28:47;;;;;;;2.50;2.30;;;1.80;99.90;;;;;;5069927;28;20165;-63
2021/12/03 01:31:14;;;;;;;2.60;2.08;;;1.80;99.90;;;;;;5069936;28;20176;-62
2021/12/03 01:33:40;;;;;;;2.78;2.22;;;1.90;99.90;;;;;;5072248;28;20189;-64
2021/12/03 01:36:05;;;;;;;2.00;1.90;;;1.90;99.90;;;;;;5089936;28;20169;-63
2021/12/03 01:38:31;;;;;;;2.37;2.20;;;1.90;99.90;;;;;;5089602;28;20176;-63
2021/12/03 01:40:57;;;;;;;2.78;2.15;;;1.90;99.90;;;;;;5089883;28;20202;-64
2021/12/03 01:43:24;;;;;;;2.33;2.13;;;1.90;99.90;;;;;;5075667;28;20256;-63
2021/12/03 01:45:52;;;;;;;2.78;2.65;;;1.90;99.90;;;;;;5069598;28;20213;-63
2021/12/03 01:48:18;;;;;;;3.55;2.08;;;1.90;99.90;;;;;;5069291;28;20233;-62
2021/12/03 01:50:45;;;;;;;3.07;2.00;;;1.90;99.90;;;;;;5069564;28;20173;-64
2021/12/03 01:53:15;;;;;;;4.75;1.80;;;1.90;99.90;;;;;;5069505;28;20189;-63
2021/12/03 01:55:43;;;;;;;2.10;2.00;;;1.90;99.90;;;;;;5069514;28;20231;-61
2021/12/03 01:58:10;;;;;;;3.20;2.25;;;1.90;99.90;;;;;;5069153;28;20169;-62
2021/12/03 02:00:53;;;;;;;4.05;2.55;;;1.80;99.90;;;;;;5051615;28;20172;-63
2021/12/03 02:03:22;;;;;;;3.15;2.92;;;1.70;99.90;;;;;;5068770;28;20263;-62
2021/12/03 02:05:48;;;;;;;2.63;2.00;;;1.70;99.90;;;;;;5069173;28;20440;-63
2021/12/03 02:08:14;;;;;;;2.57;1.30;;;1.70;99.90;;;;;;5069044;28;20197;-62
2021/12/03 02:10:42;;;;;;;2.45;2.25;;;1.60;99.90;;;;;;5069207;28;20396;-64
2021/12/03 02:13:08;;;;;;;1.88;1.73;;;1.50;99.90;;;;;;5084768;28;20196;-62
2021/12/03 02:15:34;;;;;;;2.58;2.38;;;1.50;99.90;;;;;;5089380;28;20168;-61
2021/12/03 02:17:59;;;;;;;2.13;1.93;;;1.40;99.90;;;;;;5088827;28;20218;-61
2021/12/03 02:20:26;;;;;;;3.50;2.23;;;1.40;99.90;;;;;;5073776;28;20182;-64
2021/12/03 02:22:52;;;;;;;4.95;1.85;;;1.30;99.90;;;;;;5068992;28;20220;-61
2021/12/03 02:25:21;;;;;;;2.45;1.73;;;1.30;99.90;;;;;;5068941;28;20469;-64
2021/12/03 02:27:53;;;;;;;1.67;1.58;;;1.30;99.90;;;;;;5068533;28;20189;-62
2021/12/03 02:30:20;;;;;;;2.30;1.98;;;1.20;99.90;;;;;;5068904;28;20378;-64
2021/12/03 02:32:49;;;;;;;2.53;2.40;;;1.30;99.90;;;;;;5068786;28;20199;-63
2021/12/03 02:35:16;;;;;;;1.05;0.95;;;1.20;99.90;;;;;;5068947;28;20187;-65
2021/12/03 02:37:42;;;;;;;2.05;1.95;;;1.30;99.90;;;;;;5068450;28;20165;-63
2021/12/03 02:40:10;;;;;;;1.85;1.75;;;1.20;99.90;;;;;;5068677;28;20232;-63
2021/12/03 02:42:35;;;;;;;2.67;2.53;;;1.20;99.90;;;;;;5069019;28;20241;-62
2021/12/03 02:45:02;;;;;;;3.10;2.40;;;1.20;99.90;;;;;;5068463;28;20405;-61
2021/12/03 02:47:28;;;;;;;2.85;2.47;;;1.20;99.90;;;;;;5068197;28;20161;-65
2021/12/03 02:49:54;;;;;;;2.30;1.83;;;1.10;99.90;;;;;;5068406;28;20249;-62
2021/12/03 02:52:19;;;;;;;3.83;3.53;;;1.10;99.90;;;;;;5050908;28;20173;-63
2021/12/03 02:54:45;;;;;;;2.80;2.30;;;1.20;99.90;;;;;;5069401;28;20189;-63
2021/12/03 02:57:11;;;;;;;2.93;2.57;;;1.20;99.90;;;;;;5068089;28;20184;-65
2021/12/03 02:59:36;;;;;;;2.67;2.50;;;1.10;99.90;;;;;;5068358;28;20269;-62
2021/12/03 03:02:03;;;;;;;3.30;3.00;;;1.10;99.90;;;;;;5068265;28;20671;-64
2021/12/03 03:04:29;;;;;;;2.17;2.08;;;1.10;99.90;;;;;;5068001;28;20201;-62
2021/12/03 03:06:55;;;;;;;5.10;2.60;;;1.10;99.90;;;;;;5068111;28;20292;-63
2021/12/03 03:09:20;;;;;;;2.07;1.97;;;1.00;99.90;;;;;;5078967;28;20456;-64
2021/12/03 03:11:46;;;;;;;2.53;2.33;;;1.00;99.90;;;;;;5088011;28;20166;-63
2021/12/03 03:14:12;;;;;;;2.67;2.47;;;1.00;99.90;;;;;;5087550;28;20180;-62
2021/12/03 03:16:38;;;;;;;6.90;2.50;;;0.90;99.90;;;;;;5087840;28;20502;-63
2021/12/03 03:19:18;;;;;;;1.30;1.30;;;0.90;99.90;;;;;;5088010;28;20337;-62
2021/12/03 03:21:46;;;;;;;6.22;2.72;;;0.90;99.90;;;;;;5087843;28;20192;-63
2021/12/03 03:24:13;;;;;;;2.45;2.25;;;0.80;99.90;;;;;;5087455;28;20208;-62
2021/12/03 03:26:41;;;;;;;1.95;1.83;;;0.80;99.90;;;;;;5087482;28;20210;-63
2021/12/03 03:29:09;;;;;;;2.08;1.10;;;0.80;99.90;;;;;;5087833;28;20316;-62
2021/12/03 03:31:36;;;;;;;3.25;3.05;;;0.70;99.90;;;;;;5087722;28;20173;-62
2021/12/03 03:34:02;;;;;;;2.20;1.67;;;0.70;99.90;;;;;;5087375;28;20234;-64
2021/12/03 03:36:42;;;;;;;3.97;2.55;;;0.70;99.90;;;;;;5087219;28;20200;-62
2021/12/03 03:39:11;;;;;;;1.80;1.70;;;0.70;99.90;;;;;;5073783;28;20168;-61
2021/12/03 03:41:38;;;;;;;5.32;2.20;;;0.60;99.90;;;;;;5067647;28;20168;-64
2021/12/03 03:44:04;;;;;;;4.40;3.22;;;0.60;99.90;;;;;;5067312;28;20247;-64
2021/12/03 03:46:31;;;;;;;2.72;2.15;;;0.70;99.90;;;;;;5067084;28;20445;-63
2021/12/03 03:48:56;;;;;;;2.97;2.78;;;0.70;99.90;;;;;;5067363;28;20181;-63
2021/12/03 03:51:23;;;;;;;1.80;1.70;;;0.80;99.90;;;;;;5067495;28;20246;-62
2021/12/03 03:53:48;;;;;;;1.63;1.52;;;0.80;99.90;;;;;;5079136;28;20212;-63
2021/12/03 03:56:14;;;;;;;2.10;2.00;;;0.80;99.90;;;;;;5069558;28;20416;-62
2021/12/03 03:58:41;;;;;;;2.03;1.92;;;0.80;99.90;;;;;;5069414;28;20170;-62
2021/12/03 04:01:08;;;;;;;3.10;2.15;;;0.90;99.90;;;;;;5087174;28;20215;-64
2021/12/03 04:03:34;;;;;;;3.28;2.00;;;0.90;99.90;;;;;;5086873;28;20208;-63
2021/12/03 04:06:01;;;;;;;7.60;3.87;;;0.90;99.90;;;;;;5087042;28;20484;-63
2021/12/03 04:08:29;;;;;;;2.55;2.35;;;1.00;99.90;;;;;;5086615;28;20442;-63
2021/12/03 04:10:56;;;;;;;2.83;2.08;;;1.10;99.90;;;;;;5087154;28;20175;-62
2021/12/03 04:13:23;;;;;;;2.40;2.22;;;1.10;99.90;;;;;;5086946;28;20184;-63
2021/12/03 04:15:48;;;;;;;3.80;2.88;;;1.20;99.90;;;;;;5086769;28;20175;-63
2021/12/03 04:18:14;;;;;;;2.73;2.50;;;1.20;99.90;;;;;;5086699;28;20388;-63
2021/12/03 04:20:40;;;;;;;1.77;1.67;;;1.30;99.90;;;;;;5086871;28;20414;-64
2021/12/03 04:23:06;;;;;;;6.43;2.33;;;1.30;99.90;;;;;;5075311;28;20193;-63
2021/12/03 04:25:33;;;;;;;2.57;2.37;;;1.40;99.90;;;;;;5066190;28;20215;-63
2021/12/03 04:27:59;;;;;;;3.63;3.10;;;1.40;99.90;;;;;;5066567;28;20407;-62
2021/12/03 04:30:27;;;;;;;7.07;2.57;;;1.50;99.90;;;;;;5066769;28;20460;-64
2021/12/03 04:32:54;;;;;;;4.72;4.15;;;1.50;99.90;;;;;;5066691;28;20200;-62
2021/12/03 04:35:20;;;;;;;4.35;2.50;;;1.60;99.90;;;;;;5066910;28;20208;-64
2021/12/03 04:37:46;;;;;;;3.28;2.65;;;1.60;99.90;;;;;;5066278;28;20278;-62
2021/12/03 04:40:14;;;;;;;3.20;2.42;;;1.70;99.90;;;;;;5066651;28;20189;-63
2021/12/03 04:42:40;;;;;;;3.00;1.70;;;1.60;99.90;;;;;;5066531;28;20281;-64
2021/12/03 04:45:08;;;;;;;5.68;3.10;;;1.60;99.90;;;;;;5066536;28;20336;-63
2021/12/03 04:47:35;;;;;;;2.10;1.80;;;1.70;99.90;;;;;;5066443;28;20180;-62
2021/12/03 04:50:02;;;;;;;4.68;2.90;;;1.70;99.90;;;;;;5066542;28;20158;-64
2021/12/03 04:52:28;;;;;;;4.80;2.15;;;1.70;99.90;;;;;;5076539;28;20261;-62
2021/12/03 04:54:54;;;;;;;3.17;2.63;;;1.70;99.90;;;;;;5068996;28;20215;-62
2021/12/03 04:57:19;;;;;;;6.20;3.00;;;1.70;99.90;;;;;;5086206;28;20173;-63
2021/12/03 04:59:45;;;;;;;3.70;3.20;;;1.80;99.90;;;;;;5086483;28;20172;-62
2021/12/03 05:02:11;;;;;;;4.77;2.83;;;1.80;99.90;;;;;;5086583;28;20172;-64
2021/12/03 05:04:38;;;;;;;2.05;1.80;;;1.80;99.90;;;;;;5086279;28;20205;-63
2021/12/03 05:07:27;;;;;;;7.20;3.13;;;1.80;99.90;;;;;;5086056;28;20299;-64
2021/12/03 05:09:51;;;;;;;6.10;3.47;;;1.80;99.90;;;;;;5086221;28;20172;-62
2021/12/03 05:12:17;;;;;;;4.00;3.37;;;1.90;99.90;;;;;;5086411;28;20329;-63
2021/12/03 05:14:42;;;;;;;8.03;3.50;;;1.90;99.90;;;;;;5086345;28;20295;-63
2021/12/03 05:17:08;;;;;;;4.30;3.90;;;1.90;99.90;;;;;;5086146;28;20256;-61
2021/12/03 05:19:33;;;;;;;1.93;1.83;;;2.00;99.90;;;;;;5086379;28;20190;-63
2021/12/03 05:21:59;;;;;;;4.87;3.00;;;2.00;99.90;;;;;;5075643;28;20256;-62
2021/12/03 05:24:25;;;;;;;3.60;3.10;;;2.00;99.90;;;;;;5072823;28;20193;-63
2021/12/03 05:26:50;;;;;;;2.97;2.17;;;2.10;99.90;;;;;;5085936;28;20213;-64
2021/12/03 05:29:17;;;;;;;2.50;2.30;;;2.00;99.90;;;;;;5086293;28;20373;-63
2021/12/03 05:31:43;;;;;;;3.17;2.97;;;2.00;99.90;;;;;;5086174;28;20710;-64
2021/12/03 05:34:12;;;;;;;4.97;2.47;;;2.00;99.90;;;;;;5086137;28;20193;-62
2021/12/03 05:36:39;;;;;;;2.90;2.70;;;2.00;99.90;;;;;;5087527;28;20419;-64
2021/12/03 05:39:06;;;;;;;2.90;2.58;;;2.10;99.90;;;;;;5089827;28;20226;-64
2021/12/03 05:41:32;;;;;;;10.18;4.57;;;2.10;99.90;;;;;;5089649;28;20179;-63
2021/12/03 05:43:58;;;;;;;3.78;3.42;;;2.10;99.90;;;;;;5089519;28;20240;-62
2021/12/03 05:46:24;;;;;;;3.43;3.23;;;2.10;99.90;;;;;;5089406;28;20231;-63
2021/12/03 05:48:49;;;;;;;1.60;1.60;;;2.10;99.90;;;;;;5089730;28;20173;-63
2021/12/03 05:51:15;;;;;;;5.57;2.80;;;2.10;99.90;;;;;;5080561;28;20184;-62
2021/12/03 05:53:41;;;;;;;5.93;3.53;;;2.10;99.90;;;;;;5069418;28;20225;-64
2021/12/03 05:56:06;;;;;;;4.73;3.40;;;2.10;99.90;;;;;;5069442;28;20297;-62
2021/12/03 05:58:32;;;;;;;3.40;3.10;;;2.10;99.90;;;;;;5069283;28;20180;-62
2021/12/03 06:00:58;;;;;;;4.80;2.80;;;2.10;99.90;;;;;;5069412;28;20158;-64
2021/12/03 06:03:23;;;;;;;3.70;3.10;;;2.00;99.90;;;;;;5069204;28;20213;-64
2021/12/03 06:05:50;;;;;;;4.97;3.13;;;2.00;99.90;;;;;;5069221;28;20284;-63
2021/12/03 06:08:15;;;;;;;3.65;3.35;;;2.00;99.90;;;;;;5068929;28;20157;-63
2021/12/03 06:10:42;;;;;;;2.70;2.37;;;2.00;99.90;;;;;;5069292;28;20189;-63
2021/12/03 06:13:07;;;;;;;5.75;2.58;;;2.00;99.90;;;;;;5078333;28;20414;-64
2021/12/03 06:15:33;;;;;;;5.80;2.70;;;2.00;99.90;;;;;;5069198;28;20196;-62
2021/12/03 06:17:59;;;;;;;2.87;2.63;;;2.00;99.90;;;;;;5068848;28;20330;-62
2021/12/03 06:20:25;;;;;;;3.90;3.20;;;2.00;99.90;;;;;;5070016;28;20427;-63
2021/12/03 06:22:51;;;;;;;4.30;3.20;;;2.00;99.90;;;;;;5051302;28;20173;-65
2021/12/03 06:25:19;;;;;;;3.33;3.03;;;2.00;99.90;;;;;;5068809;28;20208;-65
2021/12/03 06:27:45;;;;;;;3.75;2.70;;;2.00;99.90;;;;;;5076833;28;20185;-64
2021/12/03 06:30:15;;;;;;;3.85;3.55;;;2.00;99.90;;;;;;5070958;28;20389;-65
2021/12/03 06:32:43;;;;;;;3.15;2.50;;;2.00;99.90;;;;;;5071315;28;20189;-64
2021/12/03 06:35:11;;;;;;;4.72;2.97;;;2.00;99.90;;;;;;5088613;28;20220;-65
2021/12/03 06:37:37;;;;;;;7.78;1.92;;;2.00;99.90;;;;;;5088268;28;20161;-64
2021/12/03 06:40:06;;;;;;;3.77;3.07;;;2.10;99.90;;;;;;5088760;28;20369;-65
2021/12/03 06:42:32;;;;;;;4.50;2.92;;;;;;;;;;5079345;28;20165;-65
2021/12/03 06:44:57;;;;;;;2.15;2.03;;;2.10;99.90;;;;;;5068402;28;20381;-64
2021/12/03 06:47:23;;;;;;;1.33;1.23;;;2.10;99.90;;;;;;5067606;28;20261;-64
2021/12/03 06:49:49;;;;;;;4.63;4.20;;;2.10;99.90;;;;;;5068481;28;20174;-67
2021/12/03 06:52:16;;;;;;;8.90;3.60;;;2.10;99.90;;;;;;5068403;28;20177;-65
2021/12/03 06:54:43;;;;;;;1.60;1.50;;;2.10;99.90;;;;;;5068313;28;20191;-64
2021/12/03 06:57:10;;;;;;;2.50;2.08;;;2.10;99.90;;;;;;5075801;28;20381;-65
2021/12/03 06:59:37;;;;;;;2.40;2.17;;;2.10;99.90;;;;;;5088344;28;20224;-65
2021/12/03 07:02:04;;;;;;;3.58;3.10;;;2.00;99.90;;;;;;5078349;28;20192;-66
2021/12/03 07:04:29;;;;;;;4.72;2.63;;;1.90;99.90;;;;;;5067855;28;20298;-66
2021/12/03 07:06:55;;;;;;;2.67;1.80;;;1.80;99.90;;;;;;5087494;28;20234;-64
2021/12/03 07:09:21;;;;;;;2.40;2.00;;;1.80;99.90;;;;;;5088218;28;20262;-65
2021/12/03 07:11:47;;;;;;;3.60;2.90;;;1.70;99.90;;;;;;5086934;28;20480;-68
2021/12/03 07:14:13;;;;;;;2.65;2.45;;;1.70;99.90;;;;;;5087907;28;20416;-64
2021/12/03 07:16:38;;;;;;;20.03;3.17;;;1.60;99.90;;;;;;5087660;28;20168;-65
2021/12/03 07:19:05;;;;;;;2.73;2.53;;;1.60;99.90;;;;;;5083738;28;20184;-64
2021/12/03 07:21:31;;;;;;;2.65;1.98;;;1.70;99.90;;;;;;5068350;28;20173;-65
2021/12/03 07:23:57;;;;;;;3.63;2.60;;;1.70;99.90;;;;;;5066872;28;20248;-63
2021/12/03 07:26:25;;;;;;;4.20;2.87;;;1.70;99.90;;;;;;5049867;28;20774;-62
2021/12/03 07:28:52;;;;;;;3.25;1.63;;;1.70;99.90;;;;;;5067527;28;20407;-65
2021/12/03 07:31:18;;;;;;;2.20;2.10;;;1.70;99.90;;;;;;5067474;28;20169;-63
2021/12/03 07:33:44;;;;;;;2.45;2.25;;;1.70;99.90;;;;;;5067443;28;20236;-63
2021/12/03 07:36:10;;;;;;;3.63;3.13;;;1.70;99.90;;;;;;5067668;28;20169;-63
2021/12/03 07:38:41;;;;;;;3.55;3.05;;;1.70;99.90;;;;;;5067157;28;20165;-63
2021/12/03 07:41:07;;;;;;;3.60;3.28;;;1.70;99.90;;;;;;5067311;28;20161;-63
2021/12/03 07:43:33;;;;;;;3.30;3.07;;;1.60;99.90;;;;;;5067786;28;20339;-62
2021/12/03 07:46:07;;;;;;;4.57;3.40;;;1.60;99.90;;;;;;5070683;28;20715;-63
2021/12/03 07:48:36;;;;;;;2.75;2.58;;;1.70;99.90;;;;;;5066652;28;20185;-62
2021/12/03 07:51:04;;;;;;;2.78;2.58;;;1.70;99.90;;;;;;5093076;27;20179;-63
2021/12/03 07:53:38;;;;;;;5.85;3.78;;;1.70;99.90;;;;;;5107566;27;20211;-62
2021/12/03 07:56:04;;;;;;;5.70;2.95;;;1.80;99.90;;;;;;5067177;28;20397;-62
2021/12/03 07:58:29;;;;;;;2.72;2.15;;;1.90;99.90;;;;;;5066523;28;20211;-62
2021/12/03 08:00:57;;;;;;;3.70;2.70;;;2.10;99.90;;;;;;5080503;28;20371;-64
2021/12/03 08:03:23;;;;;;;3.45;2.80;;;2.30;99.90;;;;;;5086582;28;20416;-63
2021/12/03 08:05:49;;;;;;;3.88;2.88;;;2.50;99.90;;;;;;5070625;28;20205;-63
2021/12/03 08:08:21;;;;;;;3.43;2.23;;;2.70;99.90;;;;;;5107124;27;20160;-63
2021/12/03 08:10:50;;;;;;;3.63;1.98;;;3.00;99.90;;;;;;5107301;27;20417;-63
2021/12/03 08:13:16;;;;;;;3.38;3.17;;;3.40;99.90;;;;;;5107108;27;20193;-64
2021/12/03 08:15:42;;;;;;;6.72;3.20;;;4.00;99.90;;;;;;5107169;27;20164;-63
2021/12/03 08:18:08;;;;;;;2.50;2.30;;;4.80;99.90;;;;;;5103858;27;20160;-65
2021/12/03 08:20:37;;;;;;;7.18;2.35;;;5.70;99.90;;;;;;5086038;28;20180;-63
2021/12/03 08:23:02;;;;;;;2.90;2.65;;;6.80;99.90;;;;;;5086715;28;20223;-64
2021/12/03 08:25:29;;;;;;;2.77;2.53;;;7.50;99.90;;;;;;5086565;28;20263;-64
2021/12/03 08:27:55;;;;;;;2.30;2.20;;;7.90;99.90;;;;;;5085362;28;20451;-66
2021/12/03 08:30:21;;;;;;;2.35;2.00;;;7.70;99.90;;;;;;5085304;28;20169;-64
2021/12/03 08:32:48;;;;;;;2.80;2.10;;;7.30;99.50;;;;;;5085882;28;20199;-64
2021/12/03 08:35:14;;;;;;;2.30;2.03;;;7.00;99.80;;;;;;5067598;28;20181;-63
2021/12/03 08:37:44;;;;;;;2.10;1.95;;;6.60;99.90;;;;;;5065750;28;20169;-63
2021/12/03 08:40:16;;;;;;;1.65;1.55;;;6.10;99.90;;;;;;5089690;27;20178;-63
2021/12/03 08:42:41;;;;;;;2.80;1.75;;;6.10;99.90;;;;;;5106887;27;20247;-64
2021/12/03 08:45:08;;;;;;;3.20;2.90;;;6.70;99.90;;;;;;5106811;27;20178;-64
2021/12/03 08:47:35;;;;;;;3.42;2.63;;;7.40;99.90;;;;;;5106473;27;20339;-63
2021/12/03 08:50:12;;;;;;;3.17;2.72;;;8.20;99.90;;;;;;5087135;27;20162;-64
2021/12/03 08:55:25;;;;;;;4.37;3.57;;;9.70;97.90;;;;;;5086504;28;20484;-66
2021/12/03 08:57:51;;;;;;;4.77;3.37;;;10.30;95.00;;;;;;5083991;28;20412;-64
2021/12/03 09:00:19;;;;;;;3.33;2.20;;;10.90;95.00;;;;;;5067471;28;20437;-64
2021/12/03 09:02:45;;;;;;;2.30;2.00;;;11.40;93.60;;;;;;5068319;28;20199;-64
2021/12/03 09:05:12;;;;;;;3.30;3.00;;;11.80;91.70;;;;;;5066267;28;20469;-64
2021/12/03 09:07:41;;;;;;;2.40;2.30;;;12.10;91.40;;;;;;5069266;28;20407;-65
2021/12/03 09:10:11;;;;;;;1.90;1.80;;;12.30;90.10;;;;;;5072578;28;20507;-65
2021/12/03 09:12:37;;;;;;;2.60;2.40;;;12.60;89.30;;;;;;5079336;28;20611;-64
2021/12/03 09:15:07;;;;;;;2.40;1.97;;;12.80;89.30;;;;;;5086495;28;20422;-64
2021/12/03 09:22:55;;;;;;;3.50;1.60;;;13.30;83.60;;;;;;5090341;28;20429;-64
2021/12/03 09:25:28;;;;;;;2.73;2.27;;;13.40;83.30;;;;;;5089730;28;20462;-64
2021/12/03 09:27:59;;;;;;;4.97;1.80;;;13.70;81.90;;;;;;5063693;28;20694;-64
2021/12/03 09:30:25;;;;;;;3.17;2.50;;;13.80;80.90;;;;;;5084237;28;20434;-65
2021/12/03 09:33:13;;;;;;;1.70;1.60;;;14.00;81.00;;;;;;5089700;28;20414;-64
2021/12/03 09:35:45;;;;;;;1.90;1.43;;;14.00;79.10;;;;;;5089339;28;20382;-64
2021/12/03 09:38:14;;;;;;;2.27;2.07;;;13.80;76.60;;;;;;5071932;28;20650;-64
2021/12/03 09:40:43;;;;;;;2.47;1.10;;;13.30;77.50;;;;;;5089870;28;20500;-64
2021/12/03 09:43:09;;;;;;;1.50;1.40;;;12.90;76.30;;;;;;5077238;28;20430;-64
2021/12/03 09:45:37;;;;;;;1.63;1.53;;;12.40;78.10;;;;;;5069505;28;20536;-64
2021/12/03 09:48:18;;;;;;;2.80;2.10;;;12.10;80.40;;;;;;5069133;28;20389;-63
2021/12/03 09:50:44;;;;;;;1.40;1.33;;;11.70;80.30;;;;;;5069591;28;20497;-65
2021/12/03 09:55:54;;;;;;;1.63;1.53;;;10.80;80.60;;;;;;5069549;28;20422;-64
2021/12/03 09:58:43;;;;;;;2.20;1.90;;;10.70;81.30;;;;;;5053540;28;20431;-64
2021/12/03 10:01:11;;;;;;;1.80;1.30;;;10.50;81.20;;;;;;5089660;28;20181;-65
2021/12/03 10:04:06;;;;;;;1.90;1.70;;;10.20;82.90;;;;;;5077321;27;20492;-64
2021/12/03 10:15:14;;;;;;;2.60;1.67;;;11.10;81.50;;;;;;5087874;28;20377;-65
2021/12/03 10:26:59;;;;;;;1.63;1.37;;;10.70;83.40;;;;;;5075262;28;20521;-66
2021/12/03 10:34:50;;;;;;;1.30;1.30;;;11.20;83.60;;;;;;5091635;28;20439;-65
2021/12/03 10:38:28;;;;;;;2.07;1.60;;;11.20;83.20;;;;;;5102270;27;20405;-66
2021/12/03 10:46:20;;;;;;;3.87;2.00;;;11.40;82.10;;;;;;5081138;28;20461;-65
2021/12/03 10:55:17;;;;;;;2.27;2.00;;;10.40;84.10;;;;;;5043857;28;20443;-66
2021/12/03 12:09:38;;;;;;;1.40;1.30;;;5.40;98.00;;;;;;5066921;28;20161;-65
2021/12/03 12:30:34;;;;;;;2.28;1.33;;;5.40;98.00;;;;;;5075513;28;20180;-65
2021/12/03 13:10:50;;;;;;;1.65;1.17;;;4.90;99.00;;;;;;5090363;28;20183;-64
2021/12/03 14:48:39;;;;;;;1.00;0.98;;;4.30;99.90;;;;;;5088296;28;20157;-63
2021/12/03 14:56:40;;;;;;;2.10;1.90;;;4.10;99.90;;;;;;5068139;28;20176;-64
2021/12/03 14:59:10;;;;;;;1.80;1.65;;;4.20;99.90;;;;;;5068185;28;20181;-63
2021/12/03 15:01:45;;;;;;;1.58;1.10;;;4.10;99.90;;;;;;5068217;28;20165;-64
2021/12/03 15:07:27;;;;;;;1.85;1.58;;;4.10;99.90;;;;;;5067906;28;20425;-64
2021/12/03 15:09:48;;;;;;;0.88;0.88;;;4.10;99.90;;;;;;5066854;28;20305;-64
2021/12/03 15:23:35;;;;;;;1.20;1.05;;;3.90;99.90;;;;;;5072210;28;20219;-64
2021/12/03 15:34:33;;;;;;;1.23;0.85;;;3.60;99.90;;;;;;5087532;28;20340;-63
2021/12/03 15:37:15;;;;;;;2.15;1.10;;;3.50;99.90;;;;;;5087122;28;20168;-64
2021/12/03 15:39:58;;;;;;;1.50;1.30;;;3.40;99.90;;;;;;5087245;28;20388;-63
2021/12/03 16:03:59;;;;;;;1.33;1.33;;;3.20;99.90;;;;;;5068494;28;20260;-63
2021/12/03 16:06:37;;;;;;;9.48;1.50;;;3.20;99.90;;;;;;5086372;28;20196;-64
2021/12/03 16:09:08;;;;;;;1.13;1.08;;;3.20;99.90;;;;;;5087170;28;20258;-64
2021/12/03 16:11:41;;;;;;;2.97;0.88;;;3.30;99.90;;;;;;5087082;28;20157;-64
2021/12/03 16:14:36;;;;;;;1.45;1.38;;;3.10;99.90;;;;;;5087022;28;20181;-64
2021/12/03 16:22:59;;;;;;;0.80;0.80;;;3.00;99.90;;;;;;5066686;28;20308;-64
2021/12/03 16:25:37;;;;;;;1.67;1.58;;;3.10;99.90;;;;;;5065220;28;20267;-66
2021/12/03 16:47:27;;;;;;;2.10;1.40;;;3.10;99.90;;;;;;5086605;28;20326;-64
2021/12/03 16:52:41;;;;;;;2.63;0.95;;;3.10;99.90;;;;;;5086371;28;20186;-64
2021/12/03 16:55:07;;;;;;;0.98;0.90;;;3.20;99.90;;;;;;5068916;28;20165;-64
2021/12/03 16:57:35;;;;;;;1.47;1.37;;;3.20;99.90;;;;;;5086075;28;20427;-64
2021/12/03 17:00:16;;;;;;;3.53;1.95;;;3.30;99.90;;;;;;5086377;28;20172;-64
2021/12/03 17:02:49;;;;;;;1.20;1.13;;;3.40;99.90;;;;;;5086006;28;20183;-63
2021/12/03 17:50:25;;;;;;;2.05;0.90;;;3.90;99.90;;;;;;5069679;28;20312;-65
2021/12/03 17:53:27;;;;;;;2.05;0.90;;;3.90;99.90;;;;;;5069444;28;20158;-64
2021/12/03 17:56:27;;;;;;;1.08;1.05;;;3.90;99.70;;;;;;5069129;28;20204;-64
2021/12/03 17:58:46;;;;;;;1.13;0.93;;;3.90;99.60;;;;;;5066359;28;20346;-64
2021/12/03 18:44:22;;;;;;;2.78;1.58;;;4.00;98.20;;;;;;5081811;28;20457;-64
2021/12/03 18:50:08;;;;;;;1.77;1.67;;;4.00;98.70;;;;;;5069328;28;20180;-66
2021/12/03 18:52:47;;;;;;;2.65;1.50;;;3.90;98.70;;;;;;5068507;28;20239;-65
2021/12/03 18:55:48;;;;;;;2.20;2.00;;;3.90;98.70;;;;;;5068363;28;20204;-64
2021/12/03 18:58:07;;;;;;;2.53;1.75;;;3.90;98.80;;;;;;5065839;28;20182;-64
2021/12/03 19:00:37;;;;;;;1.15;1.15;;;3.80;98.80;;;;;;5087397;28;20397;-65
2021/12/03 19:03:10;;;;;;;1.45;1.45;;;3.80;99.10;;;;;;5070369;28;21030;-64
2021/12/03 19:05:51;;;;;;;3.13;1.90;;;3.80;99.10;;;;;;5088206;28;20459;-66
2021/12/03 19:08:22;;;;;;;2.55;2.28;;;3.80;99.10;;;;;;5088020;28;20407;-65
2021/12/03 19:10:52;;;;;;;3.47;2.20;;;3.80;99.20;;;;;;5088226;28;20165;-64
2021/12/03 19:13:27;;;;;;;5.50;4.40;;;3.80;99.50;;;;;;5087802;28;20180;-65
2021/12/03 19:15:53;;;;;;;4.53;2.25;;;3.80;99.70;;;;;;5088070;28;20176;-65
2021/12/03 19:18:23;;;;;;;1.43;1.43;;;3.90;99.70;;;;;;5070359;28;20170;-64
2021/12/03 19:20:52;;;;;;;2.63;2.10;;;3.80;99.10;;;;;;5087989;28;20403;-64
2021/12/03 19:23:17;;;;;;;2.35;2.05;;;3.80;99.00;;;;;;5087713;28;20181;-65
2021/12/03 19:25:43;;;;;;;3.40;2.43;;;3.80;99.00;;;;;;5087727;28;20210;-65
2021/12/03 19:28:09;;;;;;;2.40;2.13;;;3.90;98.90;;;;;;5083225;28;20228;-64
2021/12/03 19:30:36;;;;;;;1.20;1.20;;;3.80;98.80;;;;;;5067682;28;20378;-65
2021/12/03 19:33:02;;;;;;;1.83;1.73;;;3.80;99.00;;;;;;5067688;28;20174;-65
2021/12/03 19:35:28;;;;;;;1.90;1.20;;;3.90;98.70;;;;;;5067568;28;20173;-65
2021/12/03 19:37:55;;;;;;;2.37;2.10;;;3.90;98.50;;;;;;5067354;28;20420;-63
2021/12/03 19:40:22;;;;;;;1.98;1.45;;;3.90;98.60;;;;;;5050121;28;20663;-64
2021/12/03 19:42:57;;;;;;;2.08;1.30;;;3.90;98.20;;;;;;5067532;28;20170;-65
2021/12/03 19:45:26;;;;;;;2.20;2.10;;;4.00;98.10;;;;;;5067508;28;20184;-64
2021/12/03 19:48:02;;;;;;;2.08;1.92;;;4.00;98.10;;;;;;5067137;28;20173;-64
2021/12/03 19:50:42;;;;;;;1.42;1.23;;;3.90;98.10;;;;;;5067381;28;20365;-64
2021/12/03 19:53:13;;;;;;;7.93;5.40;;;4.10;98.50;;;;;;5067276;28;20193;-65
2021/12/03 19:55:40;;;;;;;2.67;2.20;;;4.00;98.20;;;;;;5067098;28;20281;-63
2021/12/03 19:58:09;;;;;;;1.80;1.80;;;4.00;98.10;;;;;;5074946;28;20183;-64
2021/12/03 20:00:36;;;;;;;1.90;1.80;;;4.10;98.00;;;;;;5087425;28;20314;-65
2021/12/03 20:03:03;;;;;;;3.35;1.60;;;4.10;97.90;;;;;;5086825;28;20207;-65
2021/12/03 20:05:28;;;;;;;1.70;1.60;;;4.10;97.60;;;;;;5087134;28;20184;-65
2021/12/03 20:07:56;;;;;;;3.90;1.80;;;4.10;97.50;;;;;;5086805;28;20230;-65
2021/12/03 20:10:24;;;;;;;1.83;1.73;;;4.10;97.40;;;;;;5072365;28;20207;-65
2021/12/03 20:12:51;;;;;;;1.25;1.15;;;4.10;97.30;;;;;;5067054;28;20165;-63
2021/12/03 20:16:03;;;;;;;1.83;1.73;;;4.10;97.50;;;;;;5066950;28;20217;-63
2021/12/03 20:18:52;;;;;;;2.53;1.77;;;4.00;97.40;;;;;;5064608;28;20413;-65
2021/12/03 20:20:58;;;;;;;3.50;2.58;;;4.10;97.40;;;;;;5061357;28;20197;-64